sensor_id;sensor_type;location;lat;lon;timestamp;temperature;humidity
52495;DHT22;38405;53.212;5.660;2023-06-24T00:01:50;15.20;99.90
52495;DHT22;38405;53.212;5.660;2023-06-24T00:04:16;15.20;99.90
52495;DHT22;38405;53.212;5.660;2023-06-24T00:06:44;15.20;99.90
52495;DHT22;38405;53.212;5.660;2023-06-24T00:09:10;15.20;99.90
52495;DHT22;38405;53.212;5.660;2023-06-24T00:11:35;15.10;99.90
52495;DHT22;38405;53.212;5.660;2023-06-24T00:14:01;15.20;99.90
52495;DHT22;38405;53.212;5.660;2023-06-24T00:16:27;15.10;99.90
52495;DHT22;38405;53.212;5.660;2023-06-24T00:18:54;15.10;99.90
52495;DHT22;38405;53.212;5.660;2023-06-24T00:21:20;15.00;99.90
52495;DHT22;38405;53.212;5.660;2023-06-24T00:23:48;14.90;99.90
52495;DHT22;38405;53.212;5.660;2023-06-24T00:26:14;14.80;99.90
52495;DHT22;38405;53.212;5.660;2023-06-24T00:28:41;14.70;99.90
52495;DHT22;38405;53.212;5.660;2023-06-24T00:31:07;14.60;99.90
52495;DHT22;38405;53.212;5.660;2023-06-24T00:33:33;14.50;99.90
52495;DHT22;38405;53.212;5.660;2023-06-24T00:36:01;14.50;99.90
52495;DHT22;38405;53.212;5.660;2023-06-24T00:38:27;14.50;99.90
52495;DHT22;38405;53.212;5.660;2023-06-24T00:41:01;14.50;99.90
52495;DHT22;38405;53.212;5.660;2023-06-24T00:43:28;14.60;99.90
52495;DHT22;38405;53.212;5.660;2023-06-24T00:45:55;14.60;99.90
52495;DHT22;38405;53.212;5.660;2023-06-24T00:48:22;14.60;99.90
52495;DHT22;38405;53.212;5.660;2023-06-24T00:50:47;14.70;99.90
52495;DHT22;38405;53.212;5.660;2023-06-24T00:53:16;14.70;99.90
52495;DHT22;38405;53.212;5.660;2023-06-24T00:55:41;14.70;99.90
52495;DHT22;38405;53.212;5.660;2023-06-24T00:58:07;14.70;99.90
52495;DHT22;38405;53.212;5.660;2023-06-24T01:00:33;14.80;99.90
52495;DHT22;38405;53.212;5.660;2023-06-24T01:03:00;14.80;99.90
52495;DHT22;38405;53.212;5.660;2023-06-24T01:05:26;14.70;99.90
52495;DHT22;38405;53.212;5.660;2023-06-24T01:07:53;14.70;99.90
52495;DHT22;38405;53.212;5.660;2023-06-24T01:10:22;14.70;99.90
52495;DHT22;38405;53.212;5.660;2023-06-24T01:12:49;14.70;99.90
52495;DHT22;38405;53.212;5.660;2023-06-24T01:15:15;14.70;99.90
52495;DHT22;38405;53.212;5.660;2023-06-24T01:32:14;14.20;99.90
52495;DHT22;38405;53.212;5.660;2023-06-24T01:34:56;14.10;99.90
52495;DHT22;38405;53.212;5.660;2023-06-24T01:37:33;14.10;99.90
52495;DHT22;38405;53.212;5.660;2023-06-24T01:40:12;14.00;99.90
52495;DHT22;38405;53.212;5.660;2023-06-24T01:42:42;13.90;99.90
52495;DHT22;38405;53.212;5.660;2023-06-24T01:45:16;13.80;99.90
52495;DHT22;38405;53.212;5.660;2023-06-24T01:47:45;13.80;99.90
52495;DHT22;38405;53.212;5.660;2023-06-24T01:50:14;13.80;99.90
52495;DHT22;38405;53.212;5.660;2023-06-24T01:52:43;13.80;99.90
52495;DHT22;38405;53.212;5.660;2023-06-24T01:55:12;13.80;99.90
52495;DHT22;38405;53.212;5.660;2023-06-24T01:57:42;13.80;99.90
52495;DHT22;38405;53.212;5.660;2023-06-24T02:00:09;13.80;99.90
52495;DHT22;38405;53.212;5.660;2023-06-24T02:02:36;13.80;99.90
52495;DHT22;38405;53.212;5.660;2023-06-24T02:05:04;13.80;99.90
52495;DHT22;38405;53.212;5.660;2023-06-24T02:07:31;13.70;99.90
52495;DHT22;38405;53.212;5.660;2023-06-24T02:09:59;13.70;99.90
52495;DHT22;38405;53.212;5.660;2023-06-24T02:12:26;13.70;99.90
52495;DHT22;38405;53.212;5.660;2023-06-24T02:14:55;13.70;99.90
52495;DHT22;38405;53.212;5.660;2023-06-24T02:17:24;13.60;99.90
52495;DHT22;38405;53.212;5.660;2023-06-24T02:19:52;13.60;99.90
52495;DHT22;38405;53.212;5.660;2023-06-24T02:22:18;13.60;99.90
52495;DHT22;38405;53.212;5.660;2023-06-24T02:24:45;13.60;99.90
52495;DHT22;38405;53.212;5.660;2023-06-24T02:27:12;13.60;99.90
52495;DHT22;38405;53.212;5.660;2023-06-24T02:29:39;13.60;99.90
52495;DHT22;38405;53.212;5.660;2023-06-24T02:32:06;13.60;99.90
52495;DHT22;38405;53.212;5.660;2023-06-24T02:34:32;13.60;99.90
52495;DHT22;38405;53.212;5.660;2023-06-24T02:36:58;13.60;99.90
52495;DHT22;38405;53.212;5.660;2023-06-24T02:39:24;13.70;99.90
52495;DHT22;38405;53.212;5.660;2023-06-24T02:41:50;13.70;99.90
52495;DHT22;38405;53.212;5.660;2023-06-24T02:44:16;13.70;99.90
52495;DHT22;38405;53.212;5.660;2023-06-24T02:46:43;13.70;99.90
52495;DHT22;38405;53.212;5.660;2023-06-24T02:49:11;13.60;99.90
52495;DHT22;38405;53.212;5.660;2023-06-24T02:51:39;13.60;99.90
52495;DHT22;38405;53.212;5.660;2023-06-24T02:54:06;13.60;99.90
52495;DHT22;38405;53.212;5.660;2023-06-24T02:56:32;13.50;99.90
52495;DHT22;38405;53.212;5.660;2023-06-24T02:58:58;13.50;99.90
52495;DHT22;38405;53.212;5.660;2023-06-24T03:01:25;13.50;99.90
52495;DHT22;38405;53.212;5.660;2023-06-24T03:03:55;13.50;99.90
52495;DHT22;38405;53.212;5.660;2023-06-24T03:06:21;13.50;99.90
52495;DHT22;38405;53.212;5.660;2023-06-24T03:08:48;13.50;99.90
52495;DHT22;38405;53.212;5.660;2023-06-24T03:11:15;13.50;99.90
52495;DHT22;38405;53.212;5.660;2023-06-24T03:13:42;13.50;99.90
52495;DHT22;38405;53.212;5.660;2023-06-24T03:16:07;13.50;99.90
52495;DHT22;38405;53.212;5.660;2023-06-24T03:18:41;13.50;99.90
52495;DHT22;38405;53.212;5.660;2023-06-24T03:21:08;13.50;99.90
52495;DHT22;38405;53.212;5.660;2023-06-24T03:23:34;13.50;99.90
52495;DHT22;38405;53.212;5.660;2023-06-24T03:26:00;13.40;99.90
52495;DHT22;38405;53.212;5.660;2023-06-24T03:28:25;13.50;99.90
52495;DHT22;38405;53.212;5.660;2023-06-24T03:30:52;13.50;99.90
52495;DHT22;38405;53.212;5.660;2023-06-24T03:33:17;13.60;99.90
52495;DHT22;38405;53.212;5.660;2023-06-24T03:35:44;13.60;99.90
52495;DHT22;38405;53.212;5.660;2023-06-24T03:38:09;13.60;99.90
52495;DHT22;38405;53.212;5.660;2023-06-24T03:40:35;13.60;99.90
52495;DHT22;38405;53.212;5.660;2023-06-24T03:43:01;13.60;99.90
52495;DHT22;38405;53.212;5.660;2023-06-24T03:45:26;13.60;99.90
52495;DHT22;38405;53.212;5.660;2023-06-24T03:47:52;13.60;99.90
52495;DHT22;38405;53.212;5.660;2023-06-24T03:50:18;13.60;99.90
52495;DHT22;38405;53.212;5.660;2023-06-24T03:52:43;13.60;99.90
52495;DHT22;38405;53.212;5.660;2023-06-24T03:55:10;13.70;99.90
52495;DHT22;38405;53.212;5.660;2023-06-24T03:57:36;13.70;99.90
52495;DHT22;38405;53.212;5.660;2023-06-24T04:00:03;13.70;99.90
52495;DHT22;38405;53.212;5.660;2023-06-24T04:02:38;13.70;99.90
52495;DHT22;38405;53.212;5.660;2023-06-24T04:05:04;13.70;99.90
52495;DHT22;38405;53.212;5.660;2023-06-24T04:07:32;13.80;99.90
52495;DHT22;38405;53.212;5.660;2023-06-24T04:09:57;13.80;99.90
52495;DHT22;38405;53.212;5.660;2023-06-24T04:12:26;13.90;99.90
52495;DHT22;38405;53.212;5.660;2023-06-24T04:14:53;14.00;99.90
52495;DHT22;38405;53.212;5.660;2023-06-24T04:17:19;14.10;99.90
52495;DHT22;38405;53.212;5.660;2023-06-24T04:19:44;14.20;99.90
52495;DHT22;38405;53.212;5.660;2023-06-24T04:22:10;14.30;99.90
52495;DHT22;38405;53.212;5.660;2023-06-24T04:24:38;14.60;99.90
52495;DHT22;38405;53.212;5.660;2023-06-24T04:27:07;15.30;99.90
52495;DHT22;38405;53.212;5.660;2023-06-24T04:29:32;15.90;99.90
52495;DHT22;38405;53.212;5.660;2023-06-24T04:31:58;16.50;99.90
52495;DHT22;38405;53.212;5.660;2023-06-24T04:34:24;17.00;99.90
52495;DHT22;38405;53.212;5.660;2023-06-24T04:36:49;17.50;99.90
52495;DHT22;38405;53.212;5.660;2023-06-24T04:39:15;17.90;99.90
52495;DHT22;38405;53.212;5.660;2023-06-24T04:41:40;18.00;99.90
52495;DHT22;38405;53.212;5.660;2023-06-24T04:44:06;17.80;99.90
52495;DHT22;38405;53.212;5.660;2023-06-24T04:46:32;17.40;99.90
52495;DHT22;38405;53.212;5.660;2023-06-24T04:48:58;17.20;99.90
52495;DHT22;38405;53.212;5.660;2023-06-24T04:51:24;17.00;99.90
52495;DHT22;38405;53.212;5.660;2023-06-24T04:53:50;16.80;99.90
52495;DHT22;38405;53.212;5.660;2023-06-24T04:56:21;16.80;99.90
52495;DHT22;38405;53.212;5.660;2023-06-24T04:58:47;16.70;99.90
52495;DHT22;38405;53.212;5.660;2023-06-24T05:01:14;16.70;99.90
52495;DHT22;38405;53.212;5.660;2023-06-24T05:03:42;16.70;99.90
52495;DHT22;38405;53.212;5.660;2023-06-24T05:06:08;16.80;99.90
52495;DHT22;38405;53.212;5.660;2023-06-24T05:08:34;17.00;99.90
52495;DHT22;38405;53.212;5.660;2023-06-24T05:10:59;17.10;99.90
52495;DHT22;38405;53.212;5.660;2023-06-24T05:13:28;17.40;99.90
52495;DHT22;38405;53.212;5.660;2023-06-24T05:15:53;17.60;99.90
52495;DHT22;38405;53.212;5.660;2023-06-24T05:18:19;17.80;99.90
52495;DHT22;38405;53.212;5.660;2023-06-24T05:20:45;18.00;99.90
52495;DHT22;38405;53.212;5.660;2023-06-24T05:23:10;18.30;99.90
52495;DHT22;38405;53.212;5.660;2023-06-24T05:25:36;18.50;99.90
52495;DHT22;38405;53.212;5.660;2023-06-24T05:28:02;18.60;99.90
52495;DHT22;38405;53.212;5.660;2023-06-24T05:30:28;18.80;99.90
52495;DHT22;38405;53.212;5.660;2023-06-24T05:32:53;18.90;99.90
52495;DHT22;38405;53.212;5.660;2023-06-24T05:35:19;19.10;99.90
52495;DHT22;38405;53.212;5.660;2023-06-24T05:37:45;19.20;99.90
52495;DHT22;38405;53.212;5.660;2023-06-24T05:40:11;19.30;99.90
52495;DHT22;38405;53.212;5.660;2023-06-24T05:42:38;19.40;99.90
52495;DHT22;38405;53.212;5.660;2023-06-24T05:45:05;19.50;99.90
52495;DHT22;38405;53.212;5.660;2023-06-24T05:47:32;19.70;99.90
52495;DHT22;38405;53.212;5.660;2023-06-24T05:49:58;19.80;99.90
52495;DHT22;38405;53.212;5.660;2023-06-24T05:52:24;19.90;99.90
52495;DHT22;38405;53.212;5.660;2023-06-24T05:54:50;20.10;99.90
52495;DHT22;38405;53.212;5.660;2023-06-24T05:57:15;20.30;99.90
52495;DHT22;38405;53.212;5.660;2023-06-24T05:59:41;20.40;99.90
52495;DHT22;38405;53.212;5.660;2023-06-24T06:02:07;20.60;99.90
52495;DHT22;38405;53.212;5.660;2023-06-24T06:04:32;20.80;99.90
52495;DHT22;38405;53.212;5.660;2023-06-24T06:06:58;20.90;99.90
52495;DHT22;38405;53.212;5.660;2023-06-24T06:09:24;21.00;99.90
52495;DHT22;38405;53.212;5.660;2023-06-24T06:11:52;21.00;99.90
52495;DHT22;38405;53.212;5.660;2023-06-24T06:14:18;21.10;99.90
52495;DHT22;38405;53.212;5.660;2023-06-24T06:16:43;21.20;99.90
52495;DHT22;38405;53.212;5.660;2023-06-24T06:19:09;21.30;99.90
52495;DHT22;38405;53.212;5.660;2023-06-24T06:21:36;21.40;99.90
52495;DHT22;38405;53.212;5.660;2023-06-24T06:24:03;21.60;99.90
52495;DHT22;38405;53.212;5.660;2023-06-24T06:26:29;21.70;99.90
52495;DHT22;38405;53.212;5.660;2023-06-24T06:28:54;21.70;99.90
52495;DHT22;38405;53.212;5.660;2023-06-24T06:31:20;21.70;99.90
52495;DHT22;38405;53.212;5.660;2023-06-24T06:33:46;21.80;99.90
52495;DHT22;38405;53.212;5.660;2023-06-24T06:36:13;21.80;99.90
52495;DHT22;38405;53.212;5.660;2023-06-24T06:38:40;21.80;99.90
52495;DHT22;38405;53.212;5.660;2023-06-24T06:41:06;21.90;99.90
52495;DHT22;38405;53.212;5.660;2023-06-24T06:43:32;22.00;99.90
52495;DHT22;38405;53.212;5.660;2023-06-24T06:45:58;22.00;99.90
52495;DHT22;38405;53.212;5.660;2023-06-24T06:48:24;22.00;99.90
52495;DHT22;38405;53.212;5.660;2023-06-24T06:50:50;22.10;99.90
52495;DHT22;38405;53.212;5.660;2023-06-24T06:53:17;22.10;99.90
52495;DHT22;38405;53.212;5.660;2023-06-24T06:55:43;22.10;99.90
52495;DHT22;38405;53.212;5.660;2023-06-24T06:58:09;22.00;99.90
52495;DHT22;38405;53.212;5.660;2023-06-24T07:00:35;22.00;99.90
52495;DHT22;38405;53.212;5.660;2023-06-24T07:03:00;22.00;99.90
52495;DHT22;38405;53.212;5.660;2023-06-24T07:05:26;22.00;99.90
52495;DHT22;38405;53.212;5.660;2023-06-24T07:07:51;22.00;99.90
52495;DHT22;38405;53.212;5.660;2023-06-24T07:10:19;22.10;99.90
52495;DHT22;38405;53.212;5.660;2023-06-24T07:12:45;22.10;99.90
52495;DHT22;38405;53.212;5.660;2023-06-24T07:15:11;22.20;99.90
52495;DHT22;38405;53.212;5.660;2023-06-24T07:17:37;22.20;99.90
52495;DHT22;38405;53.212;5.660;2023-06-24T07:20:03;22.20;99.90
52495;DHT22;38405;53.212;5.660;2023-06-24T07:22:29;22.30;99.90
52495;DHT22;38405;53.212;5.660;2023-06-24T07:24:56;22.40;99.90
52495;DHT22;38405;53.212;5.660;2023-06-24T07:27:22;22.50;99.90
52495;DHT22;38405;53.212;5.660;2023-06-24T07:29:48;22.70;99.90
52495;DHT22;38405;53.212;5.660;2023-06-24T07:32:13;22.80;99.90
52495;DHT22;38405;53.212;5.660;2023-06-24T07:34:45;22.90;99.90
52495;DHT22;38405;53.212;5.660;2023-06-24T07:37:11;23.00;99.90
52495;DHT22;38405;53.212;5.660;2023-06-24T07:39:36;23.20;99.90
52495;DHT22;38405;53.212;5.660;2023-06-24T07:42:05;23.40;99.90
52495;DHT22;38405;53.212;5.660;2023-06-24T07:44:31;23.50;99.90
52495;DHT22;38405;53.212;5.660;2023-06-24T07:47:03;23.70;99.90
52495;DHT22;38405;53.212;5.660;2023-06-24T07:49:29;24.00;99.90
52495;DHT22;38405;53.212;5.660;2023-06-24T07:51:54;24.20;99.90
52495;DHT22;38405;53.212;5.660;2023-06-24T07:54:20;24.30;99.90
52495;DHT22;38405;53.212;5.660;2023-06-24T07:56:45;24.50;99.90
52495;DHT22;38405;53.212;5.660;2023-06-24T07:59:11;24.60;99.90
52495;DHT22;38405;53.212;5.660;2023-06-24T08:01:37;24.70;99.90
52495;DHT22;38405;53.212;5.660;2023-06-24T08:04:02;24.80;99.90
52495;DHT22;38405;53.212;5.660;2023-06-24T08:06:28;25.10;99.90
52495;DHT22;38405;53.212;5.660;2023-06-24T08:08:54;25.50;99.90
52495;DHT22;38405;53.212;5.660;2023-06-24T08:11:19;25.80;99.90
52495;DHT22;38405;53.212;5.660;2023-06-24T08:13:47;26.10;99.90
52495;DHT22;38405;53.212;5.660;2023-06-24T08:16:16;26.40;99.90
52495;DHT22;38405;53.212;5.660;2023-06-24T08:18:41;26.80;99.90
52495;DHT22;38405;53.212;5.660;2023-06-24T08:21:07;27.40;99.90
52495;DHT22;38405;53.212;5.660;2023-06-24T08:23:33;28.20;99.90
52495;DHT22;38405;53.212;5.660;2023-06-24T08:25:58;29.10;99.90
52495;DHT22;38405;53.212;5.660;2023-06-24T08:28:24;30.00;99.90
52495;DHT22;38405;53.212;5.660;2023-06-24T08:30:49;30.30;99.90
52495;DHT22;38405;53.212;5.660;2023-06-24T08:33:18;30.60;99.90
52495;DHT22;38405;53.212;5.660;2023-06-24T08:35:44;31.10;99.90
52495;DHT22;38405;53.212;5.660;2023-06-24T08:38:09;31.50;99.90
52495;DHT22;38405;53.212;5.660;2023-06-24T08:40:36;31.80;99.60
52495;DHT22;38405;53.212;5.660;2023-06-24T08:43:06;32.20;98.90
52495;DHT22;38405;53.212;5.660;2023-06-24T08:45:31;32.20;98.40
52495;DHT22;38405;53.212;5.660;2023-06-24T08:47:58;32.30;98.10
52495;DHT22;38405;53.212;5.660;2023-06-24T08:50:31;32.60;97.50
52495;DHT22;38405;53.212;5.660;2023-06-24T08:53:00;33.00;97.20
52495;DHT22;38405;53.212;5.660;2023-06-24T08:55:27;33.30;97.10
52495;DHT22;38405;53.212;5.660;2023-06-24T08:57:54;33.30;96.40
52495;DHT22;38405;53.212;5.660;2023-06-24T09:00:20;33.20;95.90
52495;DHT22;38405;53.212;5.660;2023-06-24T09:02:45;33.30;95.30
52495;DHT22;38405;53.212;5.660;2023-06-24T09:05:11;33.30;94.90
52495;DHT22;38405;53.212;5.660;2023-06-24T09:07:37;33.40;95.00
52495;DHT22;38405;53.212;5.660;2023-06-24T09:10:04;33.50;94.60
52495;DHT22;38405;53.212;5.660;2023-06-24T09:12:32;33.40;94.10
52495;DHT22;38405;53.212;5.660;2023-06-24T09:14:58;33.20;94.00
52495;DHT22;38405;53.212;5.660;2023-06-24T09:17:24;33.00;94.20
52495;DHT22;38405;53.212;5.660;2023-06-24T09:19:50;33.10;94.40
52495;DHT22;38405;53.212;5.660;2023-06-24T09:22:17;33.10;94.50
52495;DHT22;38405;53.212;5.660;2023-06-24T09:24:45;33.00;94.60
52495;DHT22;38405;53.212;5.660;2023-06-24T09:27:13;33.10;95.10
52495;DHT22;38405;53.212;5.660;2023-06-24T09:29:43;33.00;94.50
52495;DHT22;38405;53.212;5.660;2023-06-24T09:32:09;32.80;94.00
52495;DHT22;38405;53.212;5.660;2023-06-24T09:34:35;32.80;94.80
52495;DHT22;38405;53.212;5.660;2023-06-24T09:37:01;32.70;95.10
52495;DHT22;38405;53.212;5.660;2023-06-24T09:39:28;32.80;95.10
52495;DHT22;38405;53.212;5.660;2023-06-24T09:41:57;32.80;95.20
52495;DHT22;38405;53.212;5.660;2023-06-24T09:44:24;32.80;94.90
52495;DHT22;38405;53.212;5.660;2023-06-24T09:46:51;32.80;95.00
52495;DHT22;38405;53.212;5.660;2023-06-24T09:49:18;32.80;94.90
52495;DHT22;38405;53.212;5.660;2023-06-24T09:51:54;32.80;95.00
52495;DHT22;38405;53.212;5.660;2023-06-24T09:54:21;32.50;95.20
52495;DHT22;38405;53.212;5.660;2023-06-24T09:56:50;32.20;94.80
52495;DHT22;38405;53.212;5.660;2023-06-24T09:59:18;31.70;94.20
52495;DHT22;38405;53.212;5.660;2023-06-24T10:01:49;31.50;94.90
52495;DHT22;38405;53.212;5.660;2023-06-24T10:04:19;31.50;95.60
52495;DHT22;38405;53.212;5.660;2023-06-24T10:06:45;31.30;95.80
52495;DHT22;38405;53.212;5.660;2023-06-24T10:09:11;31.20;96.00
52495;DHT22;38405;53.212;5.660;2023-06-24T10:11:44;31.10;96.10
52495;DHT22;38405;53.212;5.660;2023-06-24T10:14:10;31.00;95.90
52495;DHT22;38405;53.212;5.660;2023-06-24T10:16:36;30.90;95.70
52495;DHT22;38405;53.212;5.660;2023-06-24T10:19:03;30.90;95.20
52495;DHT22;38405;53.212;5.660;2023-06-24T10:24:12;30.80;93.50
52495;DHT22;38405;53.212;5.660;2023-06-24T10:26:40;30.60;94.40
52495;DHT22;38405;53.212;5.660;2023-06-24T10:34:27;30.50;94.50
52495;DHT22;38405;53.212;5.660;2023-06-24T10:39:47;30.60;94.30
52495;DHT22;38405;53.212;5.660;2023-06-24T10:44:52;30.60;94.10
52495;DHT22;38405;53.212;5.660;2023-06-24T10:47:18;30.40;94.40
52495;DHT22;38405;53.212;5.660;2023-06-24T10:49:45;30.40;94.30
52495;DHT22;38405;53.212;5.660;2023-06-24T10:52:11;30.50;94.80
52495;DHT22;38405;53.212;5.660;2023-06-24T10:54:38;30.40;94.00
52495;DHT22;38405;53.212;5.660;2023-06-24T10:57:04;30.50;94.00
52495;DHT22;38405;53.212;5.660;2023-06-24T11:00:00;30.40;93.70
52495;DHT22;38405;53.212;5.660;2023-06-24T11:02:27;30.30;94.50
52495;DHT22;38405;53.212;5.660;2023-06-24T11:04:57;30.40;94.20
52495;DHT22;38405;53.212;5.660;2023-06-24T11:07:25;30.20;93.50
52495;DHT22;38405;53.212;5.660;2023-06-24T11:10:02;30.10;93.30
52495;DHT22;38405;53.212;5.660;2023-06-24T11:12:30;29.90;93.50
52495;DHT22;38405;53.212;5.660;2023-06-24T11:14:56;30.00;93.90
52495;DHT22;38405;53.212;5.660;2023-06-24T11:17:23;29.90;94.00
52495;DHT22;38405;53.212;5.660;2023-06-24T11:19:49;29.90;94.40
52495;DHT22;38405;53.212;5.660;2023-06-24T11:22:15;30.00;94.00
52495;DHT22;38405;53.212;5.660;2023-06-24T11:24:41;29.90;93.70
52495;DHT22;38405;53.212;5.660;2023-06-24T11:27:07;29.90;93.50
52495;DHT22;38405;53.212;5.660;2023-06-24T11:29:33;30.00;93.20
52495;DHT22;38405;53.212;5.660;2023-06-24T11:32:01;30.10;93.10
52495;DHT22;38405;53.212;5.660;2023-06-24T11:34:28;30.10;92.80
52495;DHT22;38405;53.212;5.660;2023-06-24T11:36:54;30.00;92.10
52495;DHT22;38405;53.212;5.660;2023-06-24T11:39:24;30.00;92.00
52495;DHT22;38405;53.212;5.660;2023-06-24T11:41:50;30.00;92.00
52495;DHT22;38405;53.212;5.660;2023-06-24T11:44:24;29.90;92.30
52495;DHT22;38405;53.212;5.660;2023-06-24T11:46:50;29.70;91.70
52495;DHT22;38405;53.212;5.660;2023-06-24T11:49:16;29.60;92.40
52495;DHT22;38405;53.212;5.660;2023-06-24T11:51:47;29.60;92.50
52495;DHT22;38405;53.212;5.660;2023-06-24T11:54:15;29.60;92.60
52495;DHT22;38405;53.212;5.660;2023-06-24T11:56:42;29.60;92.80
52495;DHT22;38405;53.212;5.660;2023-06-24T12:01:43;29.50;92.00
52495;DHT22;38405;53.212;5.660;2023-06-24T12:04:13;29.50;92.80
52495;DHT22;38405;53.212;5.660;2023-06-24T12:06:42;29.60;93.00
52495;DHT22;38405;53.212;5.660;2023-06-24T12:09:11;29.50;93.00
52495;DHT22;38405;53.212;5.660;2023-06-24T12:11:37;29.60;93.20
52495;DHT22;38405;53.212;5.660;2023-06-24T12:14:03;29.70;92.80
52495;DHT22;38405;53.212;5.660;2023-06-24T12:16:29;29.70;92.10
52495;DHT22;38405;53.212;5.660;2023-06-24T12:18:55;29.70;92.30
52495;DHT22;38405;53.212;5.660;2023-06-24T12:21:21;29.80;92.60
52495;DHT22;38405;53.212;5.660;2023-06-24T12:23:47;30.00;92.90
52495;DHT22;38405;53.212;5.660;2023-06-24T12:26:13;30.00;92.30
52495;DHT22;38405;53.212;5.660;2023-06-24T12:28:38;30.00;92.70
52495;DHT22;38405;53.212;5.660;2023-06-24T12:31:04;29.90;92.60
52495;DHT22;38405;53.212;5.660;2023-06-24T12:33:30;30.00;92.60
52495;DHT22;38405;53.212;5.660;2023-06-24T12:35:56;30.00;92.80
52495;DHT22;38405;53.212;5.660;2023-06-24T12:38:22;29.90;92.90
52495;DHT22;38405;53.212;5.660;2023-06-24T12:40:48;29.80;92.90
52495;DHT22;38405;53.212;5.660;2023-06-24T12:43:14;29.70;93.10
52495;DHT22;38405;53.212;5.660;2023-06-24T12:45:40;29.60;93.00
52495;DHT22;38405;53.212;5.660;2023-06-24T12:48:12;29.60;93.10
52495;DHT22;38405;53.212;5.660;2023-06-24T12:50:38;29.50;92.90
52495;DHT22;38405;53.212;5.660;2023-06-24T12:53:04;29.50;93.00
52495;DHT22;38405;53.212;5.660;2023-06-24T12:55:30;29.40;92.90
52495;DHT22;38405;53.212;5.660;2023-06-24T12:57:56;29.30;92.90
52495;DHT22;38405;53.212;5.660;2023-06-24T13:00:22;29.20;92.80
52495;DHT22;38405;53.212;5.660;2023-06-24T13:02:49;29.00;92.70
52495;DHT22;38405;53.212;5.660;2023-06-24T13:05:15;28.90;92.90
52495;DHT22;38405;53.212;5.660;2023-06-24T13:07:41;28.80;93.00
52495;DHT22;38405;53.212;5.660;2023-06-24T13:10:07;28.70;92.90
52495;DHT22;38405;53.212;5.660;2023-06-24T13:12:33;28.60;92.70
52495;DHT22;38405;53.212;5.660;2023-06-24T13:14:59;28.50;92.60
52495;DHT22;38405;53.212;5.660;2023-06-24T13:17:25;28.40;92.50
52495;DHT22;38405;53.212;5.660;2023-06-24T13:19:52;28.40;92.80
52495;DHT22;38405;53.212;5.660;2023-06-24T13:22:18;28.30;92.80
52495;DHT22;38405;53.212;5.660;2023-06-24T13:24:44;28.40;92.60
52495;DHT22;38405;53.212;5.660;2023-06-24T13:27:10;28.40;92.50
52495;DHT22;38405;53.212;5.660;2023-06-24T13:29:36;28.30;92.60
52495;DHT22;38405;53.212;5.660;2023-06-24T13:32:02;28.30;92.30
52495;DHT22;38405;53.212;5.660;2023-06-24T13:34:28;28.30;92.50
52495;DHT22;38405;53.212;5.660;2023-06-24T13:36:53;28.30;92.50
52495;DHT22;38405;53.212;5.660;2023-06-24T13:39:20;28.30;92.80
52495;DHT22;38405;53.212;5.660;2023-06-24T13:41:49;28.20;92.90
52495;DHT22;38405;53.212;5.660;2023-06-24T13:44:15;28.10;93.20
52495;DHT22;38405;53.212;5.660;2023-06-24T13:46:41;28.00;93.30
52495;DHT22;38405;53.212;5.660;2023-06-24T13:49:07;28.00;93.40
52495;DHT22;38405;53.212;5.660;2023-06-24T13:51:33;28.00;93.30
52495;DHT22;38405;53.212;5.660;2023-06-24T13:53:59;28.10;93.30
52495;DHT22;38405;53.212;5.660;2023-06-24T13:56:25;28.10;93.20
52495;DHT22;38405;53.212;5.660;2023-06-24T13:58:52;28.00;93.00
52495;DHT22;38405;53.212;5.660;2023-06-24T14:01:19;27.90;93.00
52495;DHT22;38405;53.212;5.660;2023-06-24T14:03:45;27.90;93.00
52495;DHT22;38405;53.212;5.660;2023-06-24T14:06:13;27.80;92.80
52495;DHT22;38405;53.212;5.660;2023-06-24T14:08:39;27.80;92.90
52495;DHT22;38405;53.212;5.660;2023-06-24T14:11:05;27.80;93.00
52495;DHT22;38405;53.212;5.660;2023-06-24T14:13:30;27.80;92.80
52495;DHT22;38405;53.212;5.660;2023-06-24T14:15:57;27.70;92.80
52495;DHT22;38405;53.212;5.660;2023-06-24T14:18:23;27.80;93.00
52495;DHT22;38405;53.212;5.660;2023-06-24T14:20:49;27.90;92.80
52495;DHT22;38405;53.212;5.660;2023-06-24T14:23:15;27.80;92.80
52495;DHT22;38405;53.212;5.660;2023-06-24T14:25:40;27.70;92.90
52495;DHT22;38405;53.212;5.660;2023-06-24T14:28:06;27.70;93.00
52495;DHT22;38405;53.212;5.660;2023-06-24T14:30:33;27.70;93.00
52495;DHT22;38405;53.212;5.660;2023-06-24T14:33:00;27.80;93.10
52495;DHT22;38405;53.212;5.660;2023-06-24T14:35:26;27.80;93.20
52495;DHT22;38405;53.212;5.660;2023-06-24T14:37:52;27.70;93.50
52495;DHT22;38405;53.212;5.660;2023-06-24T14:40:18;27.70;94.10
52495;DHT22;38405;53.212;5.660;2023-06-24T14:42:44;27.80;94.10
52495;DHT22;38405;53.212;5.660;2023-06-24T14:45:10;27.70;94.20
52495;DHT22;38405;53.212;5.660;2023-06-24T14:47:36;27.60;94.20
52495;DHT22;38405;53.212;5.660;2023-06-24T14:50:02;27.50;94.20
52495;DHT22;38405;53.212;5.660;2023-06-24T14:52:29;27.60;94.40
52495;DHT22;38405;53.212;5.660;2023-06-24T14:54:55;27.70;94.20
52495;DHT22;38405;53.212;5.660;2023-06-24T14:57:20;27.70;94.20
52495;DHT22;38405;53.212;5.660;2023-06-24T14:59:48;27.70;94.20
52495;DHT22;38405;53.212;5.660;2023-06-24T15:02:14;27.70;94.10
52495;DHT22;38405;53.212;5.660;2023-06-24T15:04:40;27.70;94.10
52495;DHT22;38405;53.212;5.660;2023-06-24T15:07:06;27.70;94.30
52495;DHT22;38405;53.212;5.660;2023-06-24T15:09:32;27.80;94.50
52495;DHT22;38405;53.212;5.660;2023-06-24T15:11:59;27.80;94.50
52495;DHT22;38405;53.212;5.660;2023-06-24T15:14:25;27.80;94.20
52495;DHT22;38405;53.212;5.660;2023-06-24T15:16:51;27.80;94.30
52495;DHT22;38405;53.212;5.660;2023-06-24T15:19:19;27.80;94.40
52495;DHT22;38405;53.212;5.660;2023-06-24T15:21:45;27.70;94.40
52495;DHT22;38405;53.212;5.660;2023-06-24T15:24:10;27.70;94.40
52495;DHT22;38405;53.212;5.660;2023-06-24T15:26:36;27.70;94.30
52495;DHT22;38405;53.212;5.660;2023-06-24T15:29:02;27.80;94.40
52495;DHT22;38405;53.212;5.660;2023-06-24T15:31:28;27.80;94.20
52495;DHT22;38405;53.212;5.660;2023-06-24T15:33:54;27.70;94.10
52495;DHT22;38405;53.212;5.660;2023-06-24T15:36:20;27.70;94.10
52495;DHT22;38405;53.212;5.660;2023-06-24T15:38:47;27.60;94.00
52495;DHT22;38405;53.212;5.660;2023-06-24T15:41:13;27.60;93.90
52495;DHT22;38405;53.212;5.660;2023-06-24T15:43:40;27.60;93.90
52495;DHT22;38405;53.212;5.660;2023-06-24T15:46:05;27.60;93.80
52495;DHT22;38405;53.212;5.660;2023-06-24T15:48:31;27.60;93.70
52495;DHT22;38405;53.212;5.660;2023-06-24T15:50:57;27.60;93.70
52495;DHT22;38405;53.212;5.660;2023-06-24T15:53:25;27.60;93.80
52495;DHT22;38405;53.212;5.660;2023-06-24T15:55:51;27.60;93.70
52495;DHT22;38405;53.212;5.660;2023-06-24T15:58:16;27.40;93.70